Time;durP1;ratioP1;P1;durP2;ratioP2;P2;SDS_P1;SDS_P2;PMS_P1;PMS_P2;Temp;Humidity;BMP_temperature;BMP_pressure;BME280_temperature;BME280_humidity;BME280_pressure;Samples;Min_cycle;Max_cycle;Signal;HPM_P1;HPM_P2
2022/05/28 00:04:57;;;;;;;;;;;;;;;12.34;58.15332;102216.1;;;;-80
2022/05/28 00:10:04;;;;;;;;;;;;;;;12.26;58.10938;102210.8;;;;-82
2022/05/28 00:14:51;;;;;;;;;;;;;;;12.21;58.21484;102208.3;;;;-80
2022/05/28 00:19:54;;;;;;;;;;;;;;;12.15;58.11621;102202.5;;;;-83
2022/05/28 00:22:33;;;;;;;7.1;1.3;;;;;;;;;;;;;-81
2022/05/28 00:24:51;;;;;;;;;;;;;;;12.1;58.2666;102195.6;;;;-82
2022/05/28 00:29:51;;;;;;;;;;;;;;;12.06;58.50684;102191.4;;;;-82
2022/05/28 00:34:51;;;;;;;;;;;;;;;12.05;58.70801;102189;;;;-81
2022/05/28 00:39:51;;;;;;;;;;;;;;;11.98;58.5752;102188.3;;;;-82
2022/05/28 00:44:51;;;;;;;;;;;;;;;11.91;58.58887;102209.3;;;;-82
2022/05/28 00:49:51;;;;;;;;;;;;;;;11.85;58.81543;102205.3;;;;-82
2022/05/28 00:52:36;;;;;;;6.8;1.1;;;;;;;;;;;;;-81
2022/05/28 00:54:51;;;;;;;;;;;;;;;11.8;58.86328;102200.3;;;;-82
2022/05/28 00:59:51;;;;;;;;;;;;;;;11.75;58.74609;102199.6;;;;-81
2022/05/28 01:04:53;;;;;;;;;;;;;;;11.69;58.99414;102194.3;;;;-83
2022/05/28 01:09:57;;;;;;;;;;;;;;;11.63;59.27539;102199.4;;;;-80
2022/05/28 01:15:00;;;;;;;;;;;;;;;11.6;59.37207;102200.4;;;;-83
2022/05/28 01:19:57;;;;;;;;;;;;;;;11.56;59.47754;102201.8;;;;-82
2022/05/28 01:22:44;;;;;;;5.4;1.1;;;;;;;;;;;;;-81
2022/05/28 01:24:58;;;;;;;;;;;;;;;11.54;59.82129;102194.1;;;;-82
2022/05/28 01:29:54;;;;;;;;;;;;;;;11.54;60.01074;102203;;;;-81
2022/05/28 01:34:51;;;;;;;;;;;;;;;11.56;60.08203;102202.6;;;;-83
2022/05/28 01:39:53;;;;;;;;;;;;;;;11.58;60.18457;102208.1;;;;-80
2022/05/28 01:44:54;;;;;;;;;;;;;;;11.65;60.07227;102208.3;;;;-83
2022/05/28 01:49:58;;;;;;;;;;;;;;;11.69;60.2334;102211.5;;;;-81
2022/05/28 01:52:37;;;;;;;4.7;0.9;;;;;;;;;;;;;-83
2022/05/28 01:54:53;;;;;;;;;;;;;;;11.71;60.56055;102206.1;;;;-81
2022/05/28 01:59:53;;;;;;;;;;;;;;;11.73;60.43848;102205.7;;;;-81
2022/05/28 02:04:53;;;;;;;;;;;;;;;11.73;60.46094;102212.3;;;;-81
2022/05/28 02:09:53;;;;;;;;;;;;;;;11.73;60.34961;102208.8;;;;-82
2022/05/28 02:14:55;;;;;;;;;;;;;;;11.72;60.43848;102210.5;;;;-82
2022/05/28 02:19:57;;;;;;;;;;;;;;;11.71;60.40137;102213.2;;;;-82
2022/05/28 02:22:41;;;;;;;3.9;0.8;;;;;;;;;;;;;-82
2022/05/28 02:24:56;;;;;;;;;;;;;;;11.69;60.35547;102209.8;;;;-82
2022/05/28 02:29:54;;;;;;;;;;;;;;;11.67;60.28613;102209.2;;;;-81
2022/05/28 02:34:53;;;;;;;;;;;;;;;11.64;60.4834;102207.9;;;;-81
2022/05/28 02:39:53;;;;;;;;;;;;;;;11.58;60.3291;102209.2;;;;-80
2022/05/28 02:44:51;;;;;;;;;;;;;;;11.53;60.23242;102205.1;;;;-81
2022/05/28 02:49:55;;;;;;;;;;;;;;;11.45;60.44531;102211.3;;;;-80
2022/05/28 02:52:38;;;;;;;4.5;0.8;;;;;;;;;;;;;-82
2022/05/28 02:54:54;;;;;;;;;;;;;;;11.38;60.35742;102216.4;;;;-80
2022/05/28 02:59:56;;;;;;;;;;;;;;;11.32;60.52832;102216.4;;;;-82
2022/05/28 03:04:51;;;;;;;;;;;;;;;11.25;60.40723;102218.2;;;;-82
2022/05/28 03:09:51;;;;;;;;;;;;;;;11.21;60.27832;102222.3;;;;-80
2022/05/28 03:14:51;;;;;;;;;;;;;;;11.16;60.18262;102221;;;;-82
2022/05/28 03:19:51;;;;;;;;;;;;;;;11.1;60.11816;102223.3;;;;-82
2022/05/28 03:22:39;;;;;;;4.1;0.8;;;;;;;;;;;;;-80
2022/05/28 03:24:54;;;;;;;;;;;;;;;11.05;59.91016;102221.3;;;;-82
2022/05/28 03:29:56;;;;;;;;;;;;;;;10.96;60.08789;102225.7;;;;-82
2022/05/28 03:34:54;;;;;;;;;;;;;;;10.93;60.13867;102225.9;;;;-82
2022/05/28 03:39:56;;;;;;;;;;;;;;;10.91;59.9248;102230.6;;;;-79
2022/05/28 03:44:53;;;;;;;;;;;;;;;10.84;59.98242;102231.4;;;;-82
2022/05/28 03:49:54;;;;;;;;;;;;;;;10.81;60.08887;102235;;;;-82
2022/05/28 03:52:41;;;;;;;1.8;0.6;;;;;;;;;;;;;-80
2022/05/28 03:54:56;;;;;;;;;;;;;;;10.76;60.07129;102238.4;;;;-82
2022/05/28 03:59:54;;;;;;;;;;;;;;;10.71;60.26465;102238.5;;;;-82
2022/05/28 04:04:57;;;;;;;;;;;;;;;10.69;60.41797;102241.1;;;;-82
2022/05/28 04:09:57;;;;;;;;;;;;;;;10.69;60.28418;102245.2;;;;-83
2022/05/28 04:14:54;;;;;;;;;;;;;;;10.68;60.4834;102241.1;;;;-81
2022/05/28 04:19:51;;;;;;;;;;;;;;;10.67;60.53809;102249.7;;;;-81
2022/05/28 04:22:42;;;;;;;3.9;0.7;;;;;;;;;;;;;-81
2022/05/28 04:24:54;;;;;;;;;;;;;;;10.69;60.65137;102255.3;;;;-81
2022/05/28 04:30:02;;;;;;;;;;;;;;;10.73;60.58984;102253.9;;;;-80
2022/05/28 04:34:59;;;;;;;;;;;;;;;10.78;60.38574;102260.1;;;;-82
2022/05/28 04:39:51;;;;;;;;;;;;;;;10.81;60.23438;102262;;;;-82
2022/05/28 04:44:51;;;;;;;;;;;;;;;10.81;60.17871;102262.4;;;;-80
2022/05/28 04:49:53;;;;;;;;;;;;;;;10.82;60.04688;102261.8;;;;-80
2022/05/28 04:52:42;;;;;;;3.1;0.8;;;;;;;;;;;;;-82
2022/05/28 04:54:58;;;;;;;;;;;;;;;10.82;59.8916;102261.9;;;;-82
2022/05/28 04:59:54;;;;;;;;;;;;;;;10.83;59.9707;102261.1;;;;-82
2022/05/28 05:04:51;;;;;;;;;;;;;;;10.82;60.08008;102260.9;;;;-80
2022/05/28 05:09:51;;;;;;;;;;;;;;;10.85;60.30664;102262.4;;;;-83
2022/05/28 05:14:57;;;;;;;;;;;;;;;10.9;60.50293;102269.1;;;;-80
2022/05/28 05:19:54;;;;;;;;;;;;;;;11.04;60.65625;102261.8;;;;-81
2022/05/28 05:22:44;;;;;;;4.1;0.8;;;;;;;;;;;;;-82
2022/05/28 05:24:56;;;;;;;;;;;;;;;11.44;60.64551;102268.2;;;;-81
2022/05/28 05:29:51;;;;;;;;;;;;;;;12.09;58.58984;102268.2;;;;-83
2022/05/28 05:34:51;;;;;;;;;;;;;;;12.75;57.35645;102265;;;;-82
2022/05/28 05:39:52;;;;;;;;;;;;;;;13.34;56.2002;102274;;;;-80
2022/05/28 05:44:53;;;;;;;;;;;;;;;13.89;55.10254;102275.2;;;;-84
2022/05/28 05:49:54;;;;;;;;;;;;;;;14.45;54.02734;102272.1;;;;-82
2022/05/28 05:52:46;;;;;;;6.4;1;;;;;;;;;;;;;-80
2022/05/28 05:54:51;;;;;;;;;;;;;;;14.97;53.2334;102279;;;;-81
2022/05/28 05:59:52;;;;;;;;;;;;;;;15.52;52.25;102273;;;;-82
2022/05/28 06:04:51;;;;;;;;;;;;;;;15.96;51.44434;102281.5;;;;-83
2022/05/28 06:09:51;;;;;;;;;;;;;;;15.82;51.19141;102286.7;;;;-79
2022/05/28 06:14:53;;;;;;;;;;;;;;;15.62;51.29102;102287.2;;;;-80
2022/05/28 06:19:51;;;;;;;;;;;;;;;15.79;51.1416;102291.9;;;;-83
2022/05/28 06:22:47;;;;;;;4.9;1.1;;;;;;;;;;;;;-82
2022/05/28 06:24:51;;;;;;;;;;;;;;;16.23;50.35645;102293.7;;;;-80
2022/05/28 06:29:52;;;;;;;;;;;;;;;16.75;49.19238;102293.5;;;;-83
2022/05/28 06:34:51;;;;;;;;;;;;;;;17.28;48.01563;102288.4;;;;-81
2022/05/28 06:39:51;;;;;;;;;;;;;;;17.65;47.37402;102292.9;;;;-83
2022/05/28 06:44:51;;;;;;;;;;;;;;;17.96;46.65625;102287.1;;;;-82
2022/05/28 06:51:01;;;;;;;;;;;;;;;18.25;46.1084;102289.5;;;;-82
2022/05/28 06:52:48;;;;;;;5.1;1;;;;;;;;;;;;;-83
2022/05/28 06:54:52;;;;;;;;;;;;;;;18.65;45.45508;102294.8;;;;-82
2022/05/28 06:59:51;;;;;;;;;;;;;;;18.71;45.11914;102294;;;;-82
2022/05/28 07:04:52;;;;;;;;;;;;;;;18.55;45.31934;102299.3;;;;-81
2022/05/28 07:09:54;;;;;;;;;;;;;;;18.29;45.81543;102306.2;;;;-82
2022/05/28 07:14:51;;;;;;;;;;;;;;;18.23;46.00293;102305.3;;;;-83
2022/05/28 07:19:55;;;;;;;;;;;;;;;18.63;45.45215;102302.3;;;;-82
2022/05/28 07:22:50;;;;;;;5.6;1.2;;;;;;;;;;;;;-83
2022/05/28 07:24:51;;;;;;;;;;;;;;;18.77;44.97754;102310.1;;;;-82
2022/05/28 07:29:51;;;;;;;;;;;;;;;18.72;44.95996;102318.4;;;;-82
2022/05/28 07:34:51;;;;;;;;;;;;;;;18.79;44.94531;102323.8;;;;-82
2022/05/28 07:39:51;;;;;;;;;;;;;;;18.9;44.39746;102319.5;;;;-81
2022/05/28 07:44:51;;;;;;;;;;;;;;;19.09;44.29004;102318;;;;-83
2022/05/28 07:49:57;;;;;;;;;;;;;;;19.27;43.85254;102314.8;;;;-82
2022/05/28 07:52:52;;;;;;;6.4;1.3;;;;;;;;;;;;;-83
2022/05/28 07:55:14;;;;;;;;;;;;;;;19.35;43.62109;102311.5;;;;-83
2022/05/28 08:00:11;;;;;;;;;;;;;;;19.67;43.24121;102306.6;;;;-82
2022/05/28 08:05:06;;;;;;;;;;;;;;;20.25;42.75977;102305;;;;-84
2022/05/28 08:09:52;;;;;;;;;;;;;;;20.54;42.02148;102300.3;;;;-82
2022/05/28 08:14:53;;;;;;;;;;;;;;;20.85;41.56934;102305.5;;;;-83
2022/05/28 08:19:52;;;;;;;;;;;;;;;20.75;41.28418;102309.8;;;;-81
2022/05/28 08:24:51;;;;;;;;;;;;;;;20.53;41.61816;102312.9;;;;-82
2022/05/28 08:29:51;;;;;;;;;;;;;;;20.35;41.44141;102309.7;;;;-81
2022/05/28 08:34:53;;;;;;;;;;;;;;;20.33;41.33691;102309.3;;;;-82
2022/05/28 08:39:51;;;;;;;;;;;;;;;20.31;41.27832;102310.4;;;;-84
2022/05/28 08:44:52;;;;;;;;;;;;;;;20.44;41.20996;102310.2;;;;-82
2022/05/28 08:49:51;;;;;;;;;;;;;;;20.54;40.44043;102317.9;;;;-84
2022/05/28 08:53:04;;;;;;;8.8;1.2;;;;;;;;;;;;;-82
2022/05/28 08:55:00;;;;;;;;;;;;;;;20.45;40.3291;102323.6;;;;-82
2022/05/28 08:59:54;;;;;;;;;;;;;;;20.59;40.21582;102317.3;;;;-82
2022/05/28 09:04:54;;;;;;;;;;;;;;;20.87;39.53125;102321.2;;;;-81
2022/05/28 09:09:52;;;;;;;;;;;;;;;21.32;39.27246;102319.9;;;;-82
2022/05/28 09:14:51;;;;;;;;;;;;;;;21.81;38.94824;102329.7;;;;-83
2022/05/28 09:19:53;;;;;;;;;;;;;;;22.02;38.02344;102319;;;;-83
2022/05/28 09:23:01;;;;;;;5.1;1;;;;;;;;;;;;;-83
2022/05/28 09:24:51;;;;;;;;;;;;;;;21.96;38.31738;102322.9;;;;-82
2022/05/28 09:30:01;;;;;;;;;;;;;;;22.09;38.44336;102325.8;;;;-83
2022/05/28 09:34:58;;;;;;;;;;;;;;;22.38;38.30762;102327.6;;;;-82
2022/05/28 09:39:57;;;;;;;;;;;;;;;22.55;37.5498;102329;;;;-83
2022/05/28 09:45:01;;;;;;;;;;;;;;;22.55;37.72266;102330.1;;;;-82
2022/05/28 09:49:55;;;;;;;;;;;;;;;22.61;37.64746;102324.5;;;;-82
2022/05/28 09:54:53;;;;;;;;;;;;;;;22.71;37.59863;102333.9;;;;-81
2022/05/28 09:59:57;;;;;;;;;;;;;;;22.82;36.83496;102327.5;;;;-84
2022/05/28 10:04:54;;;;;;;;;;;;;;;22.97;36.17871;102315.6;;;;-83
2022/05/28 10:09:57;;;;;;;;;;;;;;;23.23;35.76172;102315.6;;;;-86
2022/05/28 10:15:01;;;;;;;;;;;;;;;23.6;35.60547;102311.4;;;;-82
2022/05/28 10:19:54;;;;;;;;;;;;;;;23.95;34.97461;102306.8;;;;-84
2022/05/28 10:23:14;;;;;;;4.7;1;;;;;;;;;;;;;-83
2022/05/28 10:24:57;;;;;;;;;;;;;;;24.3;35.04785;102303.7;;;;-83
2022/05/28 10:29:53;;;;;;;;;;;;;;;24.23;34.40723;102313.3;;;;-84
2022/05/28 10:35:01;;;;;;;;;;;;;;;23.88;34.76172;102312.8;;;;-83
2022/05/28 10:39:54;;;;;;;;;;;;;;;23.65;35.54102;102317;;;;-83
2022/05/28 10:44:52;;;;;;;;;;;;;;;23.69;35.90137;102310.4;;;;-84
2022/05/28 10:49:58;;;;;;;;;;;;;;;23.9;35.88379;102295.3;;;;-81
2022/05/28 10:53:14;;;;;;;6.3;1.3;;;;;;;;;;;;;-84
2022/05/28 10:54:59;;;;;;;;;;;;;;;23.87;35.45508;102307.4;;;;-82
2022/05/28 11:00:00;;;;;;;;;;;;;;;23.96;35.3457;102303.5;;;;-84
2022/05/28 11:04:59;;;;;;;;;;;;;;;24.12;34.87305;102302.4;;;;-85
2022/05/28 11:09:58;;;;;;;;;;;;;;;24.35;34.53125;102298.8;;;;-83
2022/05/28 11:15:07;;;;;;;;;;;;;;;24.6;34.07617;102292.4;;;;-82
2022/05/28 11:20:03;;;;;;;;;;;;;;;24.84;33.78125;102304.9;;;;-84
2022/05/28 11:23:31;;;;;;;5.1;1.2;;;;;;;;;;;;;-82
2022/05/28 11:25:05;;;;;;;;;;;;;;;24.73;33.80762;102300.1;;;;-83
2022/05/28 11:29:59;;;;;;;;;;;;;;;24.62;33.39453;102292.2;;;;-83
2022/05/28 11:34:55;;;;;;;;;;;;;;;24.79;33.2334;102296.2;;;;-82
2022/05/28 11:39:55;;;;;;;;;;;;;;;24.94;33.27832;102291.3;;;;-83
2022/05/28 11:44:56;;;;;;;;;;;;;;;25.14;32.70215;102290.8;;;;-81
2022/05/28 11:53:27;;;;;;;4.8;1.1;;;;;;;;;;;;;-83
2022/05/28 11:55:03;;;;;;;;;;;;;;;24.87;33.06445;102287.6;;;;-83
2022/05/28 12:00:14;;;;;;;;;;;;;;;24.79;33.0127;102293.8;;;;-90
2022/05/28 12:04:57;;;;;;;;;;;;;;;24.85;33.12207;102277.4;;;;-88
2022/05/28 12:10:05;;;;;;;;;;;;;;;24.92;33.08105;102287;;;;-87
2022/05/28 12:15:07;;;;;;;;;;;;;;;24.75;33.69336;102281;;;;-88
2022/05/28 12:20:00;;;;;;;;;;;;;;;24.32;34.00879;102288;;;;-88
2022/05/28 12:23:37;;;;;;;4.6;1;;;;;;;;;;;;;-89
2022/05/28 12:24:58;;;;;;;;;;;;;;;23.99;34.73535;102274.3;;;;-88
2022/05/28 12:30:07;;;;;;;;;;;;;;;23.84;34.80371;102283.4;;;;-87
2022/05/28 12:34:59;;;;;;;;;;;;;;;23.65;35.15918;102266.9;;;;-88
2022/05/28 12:39:58;;;;;;;;;;;;;;;23.62;34.90234;102269.6;;;;-83
2022/05/28 12:45:13;;;;;;;;;;;;;;;23.77;35.04199;102266.9;;;;-82
2022/05/28 12:50:00;;;;;;;;;;;;;;;23.86;34.77148;102267;;;;-75
2022/05/28 12:53:24;;;;;;;7.6;1.3;;;;;;;;;;;;;-76
2022/05/28 12:55:02;;;;;;;;;;;;;;;23.73;34.7959;102270.6;;;;-76
2022/05/28 13:00:01;;;;;;;;;;;;;;;23.49;34.74219;102259.2;;;;-76
2022/05/28 13:04:52;;;;;;;;;;;;;;;23.56;34.5166;102270.5;;;;-77
2022/05/28 13:09:52;;;;;;;;;;;;;;;23.53;33.9834;102262.6;;;;-75
2022/05/28 13:15:05;;;;;;;;;;;;;;;23.4;33.92773;102265.6;;;;-77
2022/05/28 13:20:03;;;;;;;;;;;;;;;23.47;34.04785;102259;;;;-75
2022/05/28 13:23:32;;;;;;;3.5;0.9;;;;;;;;;;;;;-77
2022/05/28 13:25:02;;;;;;;;;;;;;;;23.68;33.49707;102265.1;;;;-78
2022/05/28 13:30:05;;;;;;;;;;;;;;;23.97;33.60059;102251.1;;;;-77
2022/05/28 13:35:01;;;;;;;;;;;;;;;24.27;32.84766;102262.6;;;;-77
2022/05/28 13:39:51;;;;;;;;;;;;;;;24.45;32.54785;102253.3;;;;-77
2022/05/28 13:45:04;;;;;;;;;;;;;;;24.66;32.59766;102251.3;;;;-79
2022/05/28 13:49:58;;;;;;;;;;;;;;;24.81;32.75879;102251.6;;;;-78
2022/05/28 13:53:32;;;;;;;5.4;0.9;;;;;;;;;;;;;-77
2022/05/28 13:55:03;;;;;;;;;;;;;;;25.03;32.4502;102248.2;;;;-76
2022/05/28 13:59:58;;;;;;;;;;;;;;;25.04;31.60449;102255.4;;;;-77
2022/05/28 14:04:52;;;;;;;;;;;;;;;24.81;31.54199;102251.4;;;;-77
2022/05/28 14:09:51;;;;;;;;;;;;;;;24.46;32.03906;102251.5;;;;-76
2022/05/28 14:14:51;;;;;;;;;;;;;;;24.28;32.86035;102247.5;;;;-77
2022/05/28 14:19:55;;;;;;;;;;;;;;;24.27;33.4375;102248.6;;;;-76
2022/05/28 14:23:33;;;;;;;6;1.1;;;;;;;;;;;;;-77
2022/05/28 14:24:51;;;;;;;;;;;;;;;24.2;32.70313;102251.7;;;;-77
2022/05/28 14:29:52;;;;;;;;;;;;;;;23.81;32.96387;102252.6;;;;-76
2022/05/28 14:34:51;;;;;;;;;;;;;;;23.54;33.04785;102244.5;;;;-77
2022/05/28 14:39:51;;;;;;;;;;;;;;;23.49;33.25195;102237;;;;-77
2022/05/28 14:44:52;;;;;;;;;;;;;;;23.5;33.38086;102237.4;;;;-78
2022/05/28 14:49:57;;;;;;;;;;;;;;;23.53;33.1748;102235.3;;;;-79
2022/05/28 14:53:39;;;;;;;4.1;1;;;;;;;;;;;;;-77
2022/05/28 14:54:55;;;;;;;;;;;;;;;23.39;33.30273;102239.3;;;;-75
2022/05/28 14:59:51;;;;;;;;;;;;;;;23.17;33.33203;102232.8;;;;-75
2022/05/28 15:04:51;;;;;;;;;;;;;;;22.99;33.43457;102231;;;;-75
2022/05/28 15:09:53;;;;;;;;;;;;;;;22.85;33.41211;102232;;;;-75
2022/05/28 15:14:51;;;;;;;;;;;;;;;22.54;33.46973;102241.5;;;;-77
2022/05/28 15:19:51;;;;;;;;;;;;;;;22.14;34.06152;102238.2;;;;-78
2022/05/28 15:23:41;;;;;;;3.8;0.9;;;;;;;;;;;;;-75
2022/05/28 15:24:51;;;;;;;;;;;;;;;21.9;34.96484;102235.1;;;;-75
2022/05/28 15:29:52;;;;;;;;;;;;;;;21.74;35.20508;102234.4;;;;-76
2022/05/28 15:34:52;;;;;;;;;;;;;;;21.53;35.34863;102234.9;;;;-73
2022/05/28 15:39:51;;;;;;;;;;;;;;;21.29;35.70996;102227.3;;;;-75
2022/05/28 15:44:52;;;;;;;;;;;;;;;21.2;35.875;102220.6;;;;-82
2022/05/28 15:49:54;;;;;;;;;;;;;;;21.18;35.87305;102224.7;;;;-81
2022/05/28 15:53:46;;;;;;;6.9;1.1;;;;;;;;;;;;;-81
2022/05/28 15:54:51;;;;;;;;;;;;;;;21.19;35.75879;102217.9;;;;-81
2022/05/28 16:00:09;;;;;;;;;;;;;;;21.25;35.70605;102221.4;;;;-84
2022/05/28 16:09:58;;;;;;;;;;;;;;;21.38;35.79785;102208.2;;;;-83
2022/05/28 16:14:53;;;;;;;;;;;;;;;21.42;35.73145;102202.5;;;;-81
2022/05/28 16:19:54;;;;;;;;;;;;;;;21.46;35.68848;102206.6;;;;-83
2022/05/28 16:23:45;;;;;;;3.3;1;;;;;;;;;;;;;-82
2022/05/28 16:24:52;;;;;;;;;;;;;;;21.43;35.61816;102201;;;;-84
2022/05/28 16:29:51;;;;;;;;;;;;;;;21.4;35.83301;102202.5;;;;-82
2022/05/28 16:34:52;;;;;;;;;;;;;;;21.29;35.82422;102207.3;;;;-81
2022/05/28 16:39:51;;;;;;;;;;;;;;;20.99;35.99609;102198.9;;;;-82
2022/05/28 16:44:52;;;;;;;;;;;;;;;20.76;36.25195;102204.3;;;;-81
2022/05/28 16:49:51;;;;;;;;;;;;;;;20.36;36.83887;102223.9;;;;-81
2022/05/28 16:53:47;;;;;;;17.9;7.5;;;;;;;;;;;;;-81
2022/05/28 16:54:51;;;;;;;;;;;;;;;19.94;37.85742;102235.2;;;;-84
2022/05/28 16:59:52;;;;;;;;;;;;;;;19.63;38.74512;102228.4;;;;-84
2022/05/28 17:04:52;;;;;;;;;;;;;;;19.38;39.45508;102227.8;;;;-82
2022/05/28 17:09:51;;;;;;;;;;;;;;;19.1;39.97852;102218.4;;;;-82
2022/05/28 17:14:51;;;;;;;;;;;;;;;18.85;40.40137;102213;;;;-84
2022/05/28 17:19:53;;;;;;;;;;;;;;;18.57;40.82031;102210.3;;;;-84
2022/05/28 17:23:51;;;;;;;48.5;26.9;;;;;;;;;;;;;-83
2022/05/28 17:24:56;;;;;;;;;;;;;;;18.28;41.05566;102210.4;;;;-85
2022/05/28 17:30:17;;;;;;;;;;;;;;;18.03;41.2041;102209;;;;-87
2022/05/28 17:35:05;;;;;;;;;;;;;;;17.78;41.30566;102204.2;;;;-84
2022/05/28 17:39:52;;;;;;;;;;;;;;;17.57;41.27441;102203.3;;;;-86
2022/05/28 17:45:07;;;;;;;;;;;;;;;17.38;41.47266;102194.8;;;;-84
2022/05/28 17:50:09;;;;;;;;;;;;;;;17.2;41.71777;102193.8;;;;-84
2022/05/28 17:53:58;;;;;;;44.8;22.2;;;;;;;;;;;;;-83
2022/05/28 17:54:51;;;;;;;;;;;;;;;17.02;41.91602;102183.4;;;;-83
2022/05/28 18:00:09;;;;;;;;;;;;;;;16.84;42.09082;102180;;;;-82
2022/05/28 18:09:53;;;;;;;;;;;;;;;16.46;42.99707;102170.5;;;;-80
2022/05/28 18:14:51;;;;;;;;;;;;;;;16.29;43.5918;102166.4;;;;-84
2022/05/28 18:19:52;;;;;;;;;;;;;;;16.14;43.99707;102157.2;;;;-83
2022/05/28 18:24:06;;;;;;;12.7;5.1;;;;;;;;;;;;;-82
2022/05/28 18:24:51;;;;;;;;;;;;;;;16.02;44.54004;102158.9;;;;-83
2022/05/28 18:29:59;;;;;;;;;;;;;;;15.92;44.67578;102154.3;;;;-83
2022/05/28 18:34:57;;;;;;;;;;;;;;;15.81;45.19824;102146.1;;;;-84
2022/05/28 18:39:54;;;;;;;;;;;;;;;15.66;45.41992;102145;;;;-81
2022/05/28 18:44:51;;;;;;;;;;;;;;;15.5;45.86719;102146.2;;;;-81
2022/05/28 18:49:51;;;;;;;;;;;;;;;15.33;46.17676;102142.8;;;;-80
2022/05/28 18:54:51;;;;;;;;;;;;;;;15.15;46.50781;102136;;;;-82
2022/05/28 18:59:52;;;;;;;;;;;;;;;14.99;46.78516;102144.5;;;;-82
2022/05/28 19:04:52;;;;;;;;;;;;;;;14.88;47.20117;102150.5;;;;-83
2022/05/28 19:09:53;;;;;;;;;;;;;;;14.71;47.88184;102150.3;;;;-81
2022/05/28 19:14:53;;;;;;;;;;;;;;;14.55;48.1582;102146.6;;;;-82
2022/05/28 19:19:51;;;;;;;;;;;;;;;14.38;48.21875;102143.9;;;;-82
2022/05/28 19:23:58;;;;;;;5.3;1.3;;;;;;;;;;;;;-81
2022/05/28 19:27:08;;;;;;;;;;;;;;;14.22;48.57324;102144.1;;;;-83
2022/05/28 19:29:52;;;;;;;;;;;;;;;14.1;48.66016;102141.7;;;;-82
2022/05/28 19:34:51;;;;;;;;;;;;;;;13.97;48.9502;102134.8;;;;-82
2022/05/28 19:39:52;;;;;;;;;;;;;;;13.83;49.31738;102130.9;;;;-81
2022/05/28 19:44:52;;;;;;;;;;;;;;;13.67;49.44531;102129.9;;;;-78
2022/05/28 19:49:52;;;;;;;;;;;;;;;13.45;49.53418;102133.5;;;;-81
2022/05/28 19:54:00;;;;;;;4.1;1.1;;;;;;;;;;;;;-80
2022/05/28 19:54:51;;;;;;;;;;;;;;;13.29;49.69531;102131;;;;-82
2022/05/28 19:59:52;;;;;;;;;;;;;;;13.09;50.05469;102126.4;;;;-80
2022/05/28 20:04:52;;;;;;;;;;;;;;;12.94;50.2959;102128.9;;;;-80
2022/05/28 20:09:51;;;;;;;;;;;;;;;12.79;50.32324;102131.1;;;;-82
2022/05/28 20:14:51;;;;;;;;;;;;;;;12.65;50.62012;102127.1;;;;-83
2022/05/28 20:19:51;;;;;;;;;;;;;;;12.51;50.94141;102129.4;;;;-82
2022/05/28 20:24:03;;;;;;;3.3;1.1;;;;;;;;;;;;;-80
2022/05/28 20:24:51;;;;;;;;;;;;;;;12.41;51.05176;102118.5;;;;-82
2022/05/28 20:29:51;;;;;;;;;;;;;;;12.26;51.08105;102116.1;;;;-82
2022/05/28 20:34:51;;;;;;;;;;;;;;;12.11;51.28613;102111.9;;;;-82
2022/05/28 20:39:51;;;;;;;;;;;;;;;11.99;51.1709;102106.2;;;;-81
2022/05/28 20:44:51;;;;;;;;;;;;;;;11.89;51.46191;102102.8;;;;-81
2022/05/28 20:49:51;;;;;;;;;;;;;;;11.78;51.49414;102093.5;;;;-82
2022/05/28 20:54:03;;;;;;;4.6;1;;;;;;;;;;;;;-80
2022/05/28 20:54:51;;;;;;;;;;;;;;;11.64;51.76855;102093.8;;;;-80
2022/05/28 20:59:51;;;;;;;;;;;;;;;11.55;51.69043;102092.3;;;;-81
2022/05/28 21:04:51;;;;;;;;;;;;;;;11.44;52.13574;102089.7;;;;-81
2022/05/28 21:09:51;;;;;;;;;;;;;;;11.36;52.25;102080.4;;;;-81
2022/05/28 21:14:51;;;;;;;;;;;;;;;11.29;52.11816;102075.7;;;;-81
2022/05/28 21:19:52;;;;;;;;;;;;;;;11.22;52.32129;102079.4;;;;-82
2022/05/28 21:24:03;;;;;;;5.1;1.2;;;;;;;;;;;;;-80
2022/05/28 21:24:51;;;;;;;;;;;;;;;11.16;52.55957;102070.8;;;;-80
2022/05/28 21:29:54;;;;;;;;;;;;;;;11.12;52.64551;102072.3;;;;-80
2022/05/28 21:34:51;;;;;;;;;;;;;;;11.09;52.69824;102069.7;;;;-80
2022/05/28 21:39:55;;;;;;;;;;;;;;;11.07;52.875;102061.4;;;;-82
2022/05/28 21:50:06;;;;;;;;;;;;;;;11.07;53.06348;102055.5;;;;-82
2022/05/28 22:00:19;;;;;;;;;;;;;;;;;;;;;
2022/05/28 22:04:52;;;;;;;;;;;;;;;11.13;52.78027;102034.7;;;;-80
2022/05/28 22:09:51;;;;;;;;;;;;;;;11.12;52.76855;102029.8;;;;-83
2022/05/28 22:14:51;;;;;;;;;;;;;;;11.07;52.81836;102029.8;;;;-83
2022/05/28 22:19:51;;;;;;;;;;;;;;;10.99;52.93066;102025.7;;;;-81
2022/05/28 22:24:04;;;;;;;4.1;1.1;;;;;;;;;;;;;-80
2022/05/28 22:24:51;;;;;;;;;;;;;;;10.92;53.12402;102024.1;;;;-82
2022/05/28 22:29:51;;;;;;;;;;;;;;;10.84;53.125;102021.1;;;;-80
2022/05/28 22:34:53;;;;;;;;;;;;;;;10.74;53.24707;102018.7;;;;-81
2022/05/28 22:39:51;;;;;;;;;;;;;;;10.65;53.3584;102005.2;;;;-81
2022/05/28 22:49:51;;;;;;;;;;;;;;;10.47;53.61426;101995.4;;;;-81
2022/05/28 22:54:05;;;;;;;2.6;1;;;;;;;;;;;;;-80
2022/05/28 22:54:51;;;;;;;;;;;;;;;10.38;53.7373;101990.3;;;;-82
2022/05/28 22:59:51;;;;;;;;;;;;;;;10.3;53.7627;101981.9;;;;-81
2022/05/28 23:04:52;;;;;;;;;;;;;;;10.24;53.85449;101976.5;;;;-81
2022/05/28 23:09:51;;;;;;;;;;;;;;;10.16;53.88867;101971;;;;-80
2022/05/28 23:14:54;;;;;;;;;;;;;;;10.11;54.08398;101965.2;;;;-83
2022/05/28 23:19:52;;;;;;;;;;;;;;;10.05;53.90918;101960.3;;;;-80
2022/05/28 23:29:51;;;;;;;;;;;;;;;9.99;54.17969;101947.7;;;;-81
2022/05/28 23:34:51;;;;;;;;;;;;;;;9.98;54.01172;101930.5;;;;-82
2022/05/28 23:39:51;;;;;;;;;;;;;;;9.98;54.18945;101931.9;;;;-80
2022/05/28 23:44:51;;;;;;;;;;;;;;;9.99;54.24707;101932.6;;;;-79
2022/05/28 23:49:58;;;;;;;;;;;;;;;10;54.33789;101923;;;;-80
2022/05/28 23:54:13;;;;;;;3.1;1;;;;;;;;;;;;;-80
2022/05/28 23:54:51;;;;;;;;;;;;;;;10;54.13574;101916;;;;-81
2022/05/28 23:59:52;;;;;;;;;;;;;;;9.97;54.2666;101913.4;;;;-81
